Time;durP1;ratioP1;P1;durP2;ratioP2;P2;SDS_P1;SDS_P2;PMS_P1;PMS_P2;Temp;Humidity;BMP_temperature;BMP_pressure;BME280_temperature;BME280_humidity;BME280_pressure;Samples;Min_cycle;Max_cycle;Signal;HPM_P1;HPM_P2
2022/01/09 00:04:57;;;;;;;60.42;33.13;;;;;;;;;;10349201;28;20481;-59
2022/01/09 00:09:56;;;;;;;84.93;33.47;;;;;;;;;;10349945;28;20063;-59
2022/01/09 00:14:55;;;;;;;104.65;41.53;;;;;;;;;;10350551;28;20602;-59
2022/01/09 00:19:54;;;;;;;60.25;27.15;;;;;;;;;;10349422;28;20079;-59
2022/01/09 00:24:53;;;;;;;120.63;30.45;;;;;;;;;;10350095;28;20449;-58
2022/01/09 00:29:51;;;;;;;56.80;27.30;;;;;;;;;;10349118;28;20075;-58
2022/01/09 00:34:49;;;;;;;90.32;31.08;;;;;;;;;;10343664;28;20067;-56
2022/01/09 00:39:49;;;;;;;75.78;29.77;;;;;;;;;;10345004;28;20491;-58
2022/01/09 00:44:47;;;;;;;79.30;30.38;;;;;;;;;;10329674;28;20403;-58
2022/01/09 00:49:46;;;;;;;66.10;30.70;;;;;;;;;;10349243;28;20086;-57
2022/01/09 00:54:44;;;;;;;61.83;30.02;;;;;;;;;;10352964;28;20063;-59
2022/01/09 00:59:44;;;;;;;177.25;32.97;;;;;;;;;;10353172;28;20090;-57
2022/01/09 01:04:42;;;;;;;148.57;29.42;;;;;;;;;;10353531;28;20383;-57
2022/01/09 01:09:41;;;;;;;221.30;30.45;;;;;;;;;;10351952;28;20099;-57
2022/01/09 01:14:40;;;;;;;249.05;30.80;;;;;;;;;;10351158;28;20470;-58
2022/01/09 01:19:40;;;;;;;183.45;26.08;;;;;;;;;;10347982;28;20075;-59
2022/01/09 01:24:58;;;;;;;283.17;30.52;;;;;;;;;;10348252;28;20084;-57
2022/01/09 01:29:56;;;;;;;194.23;26.35;;;;;;;;;;10350270;28;20505;-59
2022/01/09 01:34:56;;;;;;;112.80;24.17;;;;;;;;;;10349562;28;20155;-58
2022/01/09 01:39:54;;;;;;;110.07;23.58;;;;;;;;;;10348639;28;20090;-59
2022/01/09 01:44:53;;;;;;;62.92;20.25;;;;;;;;;;10350927;28;20512;-57
2022/01/09 01:49:51;;;;;;;54.42;19.13;;;;;;;;;;10350303;28;20174;-61
2022/01/09 01:54:51;;;;;;;110.72;20.88;;;;;;;;;;10347252;28;20313;-58
2022/01/09 01:59:49;;;;;;;93.45;22.25;;;;;;;;;;10348222;28;20128;-58
2022/01/09 02:04:48;;;;;;;103.97;21.23;;;;;;;;;;10349983;28;20651;-59
2022/01/09 02:09:46;;;;;;;80.97;21.20;;;;;;;;;;10348934;28;20071;-58
2022/01/09 02:14:48;;;;;;;35.17;20.27;;;;;;;;;;10349775;28;20469;-58
2022/01/09 02:19:51;;;;;;;30.52;18.20;;;;;;;;;;10350505;28;20419;-58
2022/01/09 02:24:50;;;;;;;36.65;16.52;;;;;;;;;;10349243;28;20614;-57
2022/01/09 02:29:49;;;;;;;34.20;16.80;;;;;;;;;;10349549;28;20456;-58
2022/01/09 02:34:50;;;;;;;54.55;30.48;;;;;;;;;;10347183;28;20076;-58
2022/01/09 02:39:50;;;;;;;34.10;18.40;;;;;;;;;;10343651;28;20067;-58
2022/01/09 02:44:48;;;;;;;30.90;18.73;;;;;;;;;;10343541;28;20143;-58
2022/01/09 02:49:49;;;;;;;26.05;16.20;;;;;;;;;;10342810;28;20549;-58
2022/01/09 02:55:11;;;;;;;47.08;20.00;;;;;;;;;;10344167;28;20410;-58
2022/01/09 03:00:12;;;;;;;46.15;18.52;;;;;;;;;;10343379;28;20071;-57
2022/01/09 03:05:10;;;;;;;45.42;24.25;;;;;;;;;;10343980;28;20091;-59
2022/01/09 03:10:09;;;;;;;109.55;25.42;;;;;;;;;;10343693;28;20147;-58
2022/01/09 03:15:08;;;;;;;72.40;21.08;;;;;;;;;;10342412;28;20314;-57
2022/01/09 03:20:10;;;;;;;108.30;23.42;;;;;;;;;;10343351;28;20075;-58
2022/01/09 03:25:09;;;;;;;102.65;20.98;;;;;;;;;;10327153;28;20083;-58
2022/01/09 03:30:08;;;;;;;45.95;17.63;;;;;;;;;;10347160;28;20067;-58
2022/01/09 03:35:10;;;;;;;35.72;18.45;;;;;;;;;;10346963;28;20086;-58
2022/01/09 03:40:10;;;;;;;80.53;19.45;;;;;;;;;;10347062;28;20076;-58
2022/01/09 03:45:09;;;;;;;62.63;20.05;;;;;;;;;;10345783;28;20531;-59
2022/01/09 03:50:10;;;;;;;52.30;28.60;;;;;;;;;;10345401;28;20512;-58
2022/01/09 03:55:09;;;;;;;70.22;21.00;;;;;;;;;;10346424;28;20098;-58
2022/01/09 04:00:10;;;;;;;45.53;21.02;;;;;;;;;;10345712;28;20198;-58
2022/01/09 04:05:10;;;;;;;160.55;27.13;;;;;;;;;;10351121;28;20071;-59
2022/01/09 04:10:09;;;;;;;187.93;21.42;;;;;;;;;;10347123;28;20084;-58
2022/01/09 04:15:08;;;;;;;122.95;20.20;;;;;;;;;;10346296;28;20076;-59
2022/01/09 04:20:08;;;;;;;164.93;24.80;;;;;;;;;;10348316;28;20064;-60
2022/01/09 04:25:08;;;;;;;192.98;27.88;;;;;;;;;;10357395;28;20079;-59
2022/01/09 04:30:07;;;;;;;70.10;19.42;;;;;;;;;;10356963;28;20453;-59
2022/01/09 04:35:06;;;;;;;234.02;27.90;;;;;;;;;;10356102;28;20078;-60
2022/01/09 04:40:05;;;;;;;145.45;24.90;;;;;;;;;;10356329;28;20071;-59
2022/01/09 04:45:06;;;;;;;75.20;22.80;;;;;;;;;;10355392;28;20090;-60
2022/01/09 04:50:06;;;;;;;72.97;30.70;;;;;;;;;;10354635;28;20091;-57
2022/01/09 04:55:05;;;;;;;136.50;32.30;;;;;;;;;;10355833;28;20438;-59
2022/01/09 05:00:06;;;;;;;165.30;30.15;;;;;;;;;;10353846;28;20084;-60
2022/01/09 05:05:05;;;;;;;76.57;29.70;;;;;;;;;;10354820;28;20120;-60
2022/01/09 05:10:03;;;;;;;173.90;35.47;;;;;;;;;;10354774;28;20067;-56
2022/01/09 05:15:02;;;;;;;144.93;36.35;;;;;;;;;;10354348;28;20075;-58
2022/01/09 05:20:02;;;;;;;52.30;23.20;;;;;;;;;;10354943;28;20072;-59
2022/01/09 05:25:02;;;;;;;89.35;27.33;;;;;;;;;;10346378;28;20599;-57
2022/01/09 05:30:00;;;;;;;43.78;18.25;;;;;;;;;;10343900;28;20400;-58
2022/01/09 05:34:58;;;;;;;38.15;18.65;;;;;;;;;;10344939;28;20071;-59
2022/01/09 05:39:58;;;;;;;35.17;18.10;;;;;;;;;;10345938;28;20066;-58
2022/01/09 05:44:56;;;;;;;32.63;20.10;;;;;;;;;;10349073;28;20429;-59
2022/01/09 05:49:55;;;;;;;33.25;21.42;;;;;;;;;;10348394;28;20098;-59
2022/01/09 05:54:53;;;;;;;51.88;29.10;;;;;;;;;;10349633;28;20130;-59
2022/01/09 05:59:53;;;;;;;44.25;24.50;;;;;;;;;;10347300;28;20440;-59
2022/01/09 06:04:51;;;;;;;29.23;18.60;;;;;;;;;;10349474;28;20063;-59
2022/01/09 06:09:49;;;;;;;28.92;15.63;;;;;;;;;;10349142;28;20059;-59
2022/01/09 06:14:48;;;;;;;29.15;17.23;;;;;;;;;;10340481;28;20068;-59
2022/01/09 06:19:47;;;;;;;34.13;20.13;;;;;;;;;;10343088;28;20074;-59
2022/01/09 06:24:46;;;;;;;40.20;24.60;;;;;;;;;;10320556;28;20079;-58
2022/01/09 06:29:45;;;;;;;33.13;20.48;;;;;;;;;;10346220;28;20457;-58
2022/01/09 06:34:43;;;;;;;33.63;22.05;;;;;;;;;;10345571;28;20429;-58
2022/01/09 06:39:44;;;;;;;31.48;21.48;;;;;;;;;;10346461;28;20075;-58
2022/01/09 06:44:43;;;;;;;55.92;25.02;;;;;;;;;;10347205;28;20076;-58
2022/01/09 06:49:42;;;;;;;34.13;16.50;;;;;;;;;;10345485;28;20079;-58
2022/01/09 06:54:40;;;;;;;44.65;22.67;;;;;;;;;;10347575;28;20098;-59
2022/01/09 06:59:41;;;;;;;57.90;31.42;;;;;;;;;;10350472;28;20465;-59
2022/01/09 07:04:39;;;;;;;45.70;24.17;;;;;;;;;;10346880;28;20502;-59
2022/01/09 07:09:38;;;;;;;64.85;23.92;;;;;;;;;;10349886;28;20193;-59
2022/01/09 07:14:37;;;;;;;72.28;38.15;;;;;;;;;;10350774;28;20074;-59
2022/01/09 07:19:38;;;;;;;46.80;31.75;;;;;;;;;;10351627;28;20440;-59
2022/01/09 07:24:37;;;;;;;40.42;21.17;;;;;;;;;;10351359;28;20079;-55
2022/01/09 07:29:37;;;;;;;28.80;20.42;;;;;;;;;;10331128;28;20040;-59
2022/01/09 07:34:35;;;;;;;74.10;50.70;;;;;;;;;;10349423;28;20146;-59
2022/01/09 07:39:35;;;;;;;36.38;23.25;;;;;;;;;;10351262;28;20056;-59
2022/01/09 07:44:34;;;;;;;35.28;23.65;;;;;;;;;;10346992;28;20090;-59
2022/01/09 07:49:32;;;;;;;34.13;23.70;;;;;;;;;;10347523;28;20456;-59
2022/01/09 07:54:30;;;;;;;25.63;18.33;;;;;;;;;;10350914;28;20150;-59
2022/01/09 07:59:30;;;;;;;38.90;28.10;;;;;;;;;;10358948;28;20071;-58
2022/01/09 08:04:29;;;;;;;45.03;33.70;;;;;;;;;;10360460;28;20081;-59
2022/01/09 08:09:27;;;;;;;28.17;21.42;;;;;;;;;;10358066;28;20481;-58
2022/01/09 08:14:25;;;;;;;19.65;14.15;;;;;;;;;;10360397;28;20062;-59
2022/01/09 08:19:25;;;;;;;18.77;14.13;;;;;;;;;;10357493;28;20060;-58
2022/01/09 08:24:24;;;;;;;22.40;16.38;;;;;;;;;;10355138;28;20078;-57
2022/01/09 08:29:22;;;;;;;23.55;17.80;;;;;;;;;;10337985;28;20075;-58
2022/01/09 08:34:21;;;;;;;23.17;19.27;;;;;;;;;;10354889;28;20516;-59
2022/01/09 08:39:20;;;;;;;26.92;18.85;;;;;;;;;;10355640;28;20079;-59
2022/01/09 08:44:19;;;;;;;52.00;36.17;;;;;;;;;;10356417;28;20536;-59
2022/01/09 08:49:17;;;;;;;46.28;33.42;;;;;;;;;;10355478;28;20064;-54
2022/01/09 08:54:15;;;;;;;57.15;38.47;;;;;;;;;;10356171;28;20063;-56
2022/01/09 08:59:15;;;;;;;61.08;41.20;;;;;;;;;;10356324;28;20064;-54
2022/01/09 09:04:15;;;;;;;57.40;41.88;;;;;;;;;;10354412;28;20469;-54
2022/01/09 09:09:13;;;;;;;40.65;30.77;;;;;;;;;;10355911;28;20075;-56
2022/01/09 09:14:12;;;;;;;35.45;25.50;;;;;;;;;;10337509;28;20086;-59
2022/01/09 09:19:11;;;;;;;40.92;28.40;;;;;;;;;;10356296;28;20068;-58
2022/01/09 09:24:10;;;;;;;34.10;27.60;;;;;;;;;;10356621;28;20329;-58
2022/01/09 09:29:08;;;;;;;47.80;32.22;;;;;;;;;;10355841;28;20079;-59
2022/01/09 09:34:08;;;;;;;49.05;33.83;;;;;;;;;;10356565;28;20074;-59
2022/01/09 09:39:09;;;;;;;35.95;23.25;;;;;;;;;;10357287;28;20079;-59
2022/01/09 09:44:09;;;;;;;39.25;27.17;;;;;;;;;;10351456;28;20075;-59
2022/01/09 09:49:07;;;;;;;24.58;16.42;;;;;;;;;;10355274;28;20091;-60
2022/01/09 09:54:05;;;;;;;36.47;23.50;;;;;;;;;;10351952;28;20079;-58
2022/01/09 09:59:05;;;;;;;30.08;19.42;;;;;;;;;;10351070;28;20122;-58
2022/01/09 10:04:04;;;;;;;28.95;18.52;;;;;;;;;;10349036;28;20083;-56
2022/01/09 10:09:06;;;;;;;34.13;24.33;;;;;;;;;;10346739;28;20063;-58
2022/01/09 10:14:12;;;;;;;35.13;26.35;;;;;;;;;;10349967;28;20067;-55
2022/01/09 10:19:10;;;;;;;32.83;22.52;;;;;;;;;;10352568;28;20075;-58
2022/01/09 10:24:11;;;;;;;38.78;26.55;;;;;;;;;;10352506;28;20083;-59
2022/01/09 10:29:09;;;;;;;26.92;20.33;;;;;;;;;;10347122;28;20173;-59
2022/01/09 10:34:10;;;;;;;37.08;24.58;;;;;;;;;;10351393;28;20198;-58
2022/01/09 10:39:11;;;;;;;39.15;30.73;;;;;;;;;;10352641;28;20067;-60
2022/01/09 10:44:13;;;;;;;31.50;24.38;;;;;;;;;;10353368;28;20075;-59
2022/01/09 10:49:14;;;;;;;26.40;17.58;;;;;;;;;;10351021;28;20075;-58
2022/01/09 10:54:27;;;;;;;22.20;17.20;;;;;;;;;;10353001;28;20068;-60
2022/01/09 10:59:29;;;;;;;31.10;23.58;;;;;;;;;;10346572;28;20059;-59
2022/01/09 11:04:30;;;;;;;34.20;24.45;;;;;;;;;;10352071;28;20087;-59
2022/01/09 11:09:30;;;;;;;34.70;24.67;;;;;;;;;;10351497;28;20071;-59
2022/01/09 11:14:30;;;;;;;35.60;27.00;;;;;;;;;;10354292;28;20416;-59
2022/01/09 11:19:29;;;;;;;43.33;27.67;;;;;;;;;;10352941;28;20116;-59
2022/01/09 11:24:39;;;;;;;29.83;22.20;;;;;;;;;;10351130;28;20075;-59
2022/01/09 11:29:41;;;;;;;32.20;19.67;;;;;;;;;;10351647;28;20075;-56
2022/01/09 11:34:46;;;;;;;34.45;23.35;;;;;;;;;;10351072;28;20083;-59
2022/01/09 11:39:44;;;;;;;24.08;17.08;;;;;;;;;;10350269;28;20464;-58
2022/01/09 11:44:46;;;;;;;73.85;43.63;;;;;;;;;;10345906;28;20505;-55
2022/01/09 11:50:03;;;;;;;48.88;27.05;;;;;;;;;;10338121;28;20130;-58
2022/01/09 11:55:05;;;;;;;22.67;18.83;;;;;;;;;;10348575;28;20059;-58
2022/01/09 12:00:04;;;;;;;39.28;24.45;;;;;;;;;;10349882;28;20071;-59
2022/01/09 12:05:03;;;;;;;53.20;36.35;;;;;;;;;;10351212;28;20508;-59
2022/01/09 12:10:04;;;;;;;37.72;23.92;;;;;;;;;;10349030;28;20066;-58
2022/01/09 12:15:04;;;;;;;32.83;23.40;;;;;;;;;;10349330;28;20473;-56
2022/01/09 12:20:07;;;;;;;18.23;13.90;;;;;;;;;;10349322;28;20078;-59
2022/01/09 12:25:07;;;;;;;33.78;24.50;;;;;;;;;;10350880;28;20476;-59
2022/01/09 12:30:05;;;;;;;25.02;18.08;;;;;;;;;;10350477;28;20064;-59
2022/01/09 12:35:14;;;;;;;23.75;18.10;;;;;;;;;;10350841;28;20064;-59
2022/01/09 12:40:15;;;;;;;17.42;14.07;;;;;;;;;;10349466;28;20067;-58
2022/01/09 12:45:18;;;;;;;25.67;19.13;;;;;;;;;;10353640;28;20063;-58
2022/01/09 12:50:16;;;;;;;24.00;17.65;;;;;;;;;;10355813;28;20067;-60
2022/01/09 12:55:16;;;;;;;31.63;22.55;;;;;;;;;;10356858;28;20082;-59
2022/01/09 13:00:34;;;;;;;33.28;22.42;;;;;;;;;;10355883;28;20071;-59
2022/01/09 13:05:33;;;;;;;35.30;24.05;;;;;;;;;;10335189;28;20079;-60
2022/01/09 13:10:33;;;;;;;38.63;22.98;;;;;;;;;;10350254;28;20082;-60
2022/01/09 13:15:32;;;;;;;25.63;17.35;;;;;;;;;;10352523;28;20071;-60
2022/01/09 13:20:31;;;;;;;40.25;26.52;;;;;;;;;;10355892;28;20074;-59
2022/01/09 13:25:29;;;;;;;38.10;25.17;;;;;;;;;;10355144;28;20918;-60
2022/01/09 13:30:29;;;;;;;32.53;21.33;;;;;;;;;;10355101;28;20072;-60
2022/01/09 13:35:27;;;;;;;32.42;21.92;;;;;;;;;;10353603;28;20067;-58
2022/01/09 13:40:26;;;;;;;26.48;19.73;;;;;;;;;;10353122;28;20525;-59
2022/01/09 13:45:25;;;;;;;27.08;20.08;;;;;;;;;;10354020;28;20083;-59
2022/01/09 13:50:26;;;;;;;49.63;32.45;;;;;;;;;;10354259;28;20068;-59
2022/01/09 13:55:26;;;;;;;90.10;56.33;;;;;;;;;;10354281;28;20501;-59
2022/01/09 14:00:25;;;;;;;66.97;45.85;;;;;;;;;;10353430;28;20107;-59
2022/01/09 14:05:27;;;;;;;21.13;16.83;;;;;;;;;;10353522;28;20485;-59
2022/01/09 14:10:32;;;;;;;30.10;23.55;;;;;;;;;;10353965;28;20064;-59
2022/01/09 14:15:30;;;;;;;46.08;35.95;;;;;;;;;;10353519;28;20445;-59
2022/01/09 14:20:30;;;;;;;53.03;39.83;;;;;;;;;;10351824;28;20070;-60
2022/01/09 14:25:44;;;;;;;71.28;45.63;;;;;;;;;;10350510;28;20079;-59
2022/01/09 14:30:44;;;;;;;56.30;37.97;;;;;;;;;;10354140;28;20067;-60
2022/01/09 14:35:44;;;;;;;51.25;38.20;;;;;;;;;;10352745;28;20071;-60
2022/01/09 14:40:46;;;;;;;62.10;42.15;;;;;;;;;;10353272;28;20493;-59
2022/01/09 14:45:45;;;;;;;70.78;46.95;;;;;;;;;;10350404;28;20074;-59
2022/01/09 14:50:45;;;;;;;49.72;34.38;;;;;;;;;;10346889;28;20078;-57
2022/01/09 14:55:44;;;;;;;30.38;22.45;;;;;;;;;;10347559;28;20075;-58
2022/01/09 15:00:42;;;;;;;61.67;38.42;;;;;;;;;;10350494;28;20094;-58
2022/01/09 15:05:43;;;;;;;36.08;25.77;;;;;;;;;;10345494;28;20473;-58
2022/01/09 15:10:43;;;;;;;48.05;37.17;;;;;;;;;;10350162;28;20075;-58
2022/01/09 15:15:42;;;;;;;38.95;28.45;;;;;;;;;;10352951;28;20072;-58
2022/01/09 15:20:41;;;;;;;80.13;53.35;;;;;;;;;;10351734;28;20079;-59
2022/01/09 15:25:40;;;;;;;46.20;30.38;;;;;;;;;;10350157;28;20572;-59
2022/01/09 15:30:42;;;;;;;47.78;36.30;;;;;;;;;;10350899;28;20394;-58
2022/01/09 15:35:41;;;;;;;68.13;43.90;;;;;;;;;;10351013;28;20519;-59
2022/01/09 15:40:39;;;;;;;47.28;31.38;;;;;;;;;;10348935;28;20072;-58
2022/01/09 15:45:37;;;;;;;39.38;29.95;;;;;;;;;;10349138;28;20539;-58
2022/01/09 15:50:38;;;;;;;70.72;49.15;;;;;;;;;;10347653;28;20634;-58
2022/01/09 15:55:36;;;;;;;86.57;55.88;;;;;;;;;;10351558;28;20055;-57
2022/01/09 16:00:35;;;;;;;36.30;31.77;;;;;;;;;;10349586;28;20075;-58
2022/01/09 16:05:35;;;;;;;24.40;18.30;;;;;;;;;;10350844;28;20076;-59
2022/01/09 16:10:35;;;;;;;93.35;60.03;;;;;;;;;;10349967;28;20560;-59
2022/01/09 16:15:33;;;;;;;146.15;72.85;;;;;;;;;;10350906;28;20090;-59
2022/01/09 16:20:32;;;;;;;30.92;25.73;;;;;;;;;;10334017;28;20071;-59
2022/01/09 16:25:30;;;;;;;34.50;26.42;;;;;;;;;;10360138;28;20090;-59
2022/01/09 16:30:30;;;;;;;25.52;20.17;;;;;;;;;;10358393;28;20071;-59
2022/01/09 16:35:29;;;;;;;38.88;28.70;;;;;;;;;;10356997;28;20070;-59
2022/01/09 16:40:28;;;;;;;110.00;63.55;;;;;;;;;;10352600;28;20068;-59
2022/01/09 16:45:27;;;;;;;82.32;44.72;;;;;;;;;;10358539;28;20481;-59
2022/01/09 16:50:27;;;;;;;65.43;38.90;;;;;;;;;;10355656;28;20477;-59
2022/01/09 16:55:25;;;;;;;32.03;21.92;;;;;;;;;;10355470;28;20426;-58
2022/01/09 17:00:23;;;;;;;39.85;28.95;;;;;;;;;;10356144;28;20507;-59
2022/01/09 17:05:22;;;;;;;45.40;31.67;;;;;;;;;;10354843;28;20456;-59
2022/01/09 17:10:21;;;;;;;48.80;34.10;;;;;;;;;;10327417;28;20082;-59
2022/01/09 17:15:21;;;;;;;32.63;24.20;;;;;;;;;;10348493;28;20059;-58
2022/01/09 17:20:19;;;;;;;46.60;32.65;;;;;;;;;;10352147;28;20496;-59
2022/01/09 17:25:18;;;;;;;79.03;47.67;;;;;;;;;;10356707;28;20067;-60
2022/01/09 17:30:17;;;;;;;58.35;41.33;;;;;;;;;;10355388;28;20075;-59
2022/01/09 17:35:16;;;;;;;52.55;35.35;;;;;;;;;;10354977;28;20063;-59
2022/01/09 17:40:14;;;;;;;33.90;24.85;;;;;;;;;;10356882;28;20059;-59
2022/01/09 17:45:12;;;;;;;41.28;28.98;;;;;;;;;;10354366;28;20044;-59
2022/01/09 17:50:12;;;;;;;31.52;24.45;;;;;;;;;;10352390;28;20075;-59
2022/01/09 17:55:11;;;;;;;26.35;19.13;;;;;;;;;;10347191;28;20484;-58
2022/01/09 18:00:11;;;;;;;18.70;16.40;;;;;;;;;;10349471;28;20071;-59
2022/01/09 18:05:09;;;;;;;19.08;16.85;;;;;;;;;;10353843;28;20466;-58
2022/01/09 18:10:09;;;;;;;35.60;31.85;;;;;;;;;;10352897;28;20083;-59
2022/01/09 18:15:08;;;;;;;35.67;26.65;;;;;;;;;;10354603;28;20078;-59
2022/01/09 18:20:08;;;;;;;34.25;26.15;;;;;;;;;;10354402;28;20091;-58
2022/01/09 18:25:09;;;;;;;35.83;25.10;;;;;;;;;;10351618;28;20083;-58
2022/01/09 18:30:08;;;;;;;25.27;17.75;;;;;;;;;;10349855;28;20099;-57
2022/01/09 18:35:06;;;;;;;26.30;19.42;;;;;;;;;;10351693;28;20067;-58
2022/01/09 18:40:05;;;;;;;26.38;18.58;;;;;;;;;;10351874;28;20067;-57
2022/01/09 18:45:06;;;;;;;47.85;34.22;;;;;;;;;;10352963;28;20070;-56
2022/01/09 18:50:04;;;;;;;38.25;28.42;;;;;;;;;;10351929;28;20068;-59
2022/01/09 18:55:04;;;;;;;35.88;26.52;;;;;;;;;;10347349;28;20075;-56
2022/01/09 19:00:05;;;;;;;70.90;44.83;;;;;;;;;;10349514;28;20075;-55
2022/01/09 19:05:04;;;;;;;78.75;50.78;;;;;;;;;;10350198;28;20075;-58
2022/01/09 19:10:03;;;;;;;46.45;30.75;;;;;;;;;;10349523;28;20504;-58
2022/01/09 19:15:02;;;;;;;23.23;17.38;;;;;;;;;;10339582;28;20105;-57
2022/01/09 19:20:03;;;;;;;33.22;23.25;;;;;;;;;;10349520;28;20064;-57
2022/01/09 19:25:02;;;;;;;23.35;17.70;;;;;;;;;;10350611;28;20068;-58
2022/01/09 19:30:00;;;;;;;36.50;24.15;;;;;;;;;;10348698;28;20075;-58
2022/01/09 19:34:58;;;;;;;33.95;24.27;;;;;;;;;;10349127;28;20093;-57
2022/01/09 19:39:58;;;;;;;31.75;22.42;;;;;;;;;;10350860;28;20068;-58
2022/01/09 19:44:56;;;;;;;32.15;22.77;;;;;;;;;;10347030;28;20505;-58
2022/01/09 19:49:55;;;;;;;36.40;28.92;;;;;;;;;;10349306;28;20083;-56
2022/01/09 19:54:53;;;;;;;68.07;39.95;;;;;;;;;;10359050;28;20059;-57
2022/01/09 19:59:53;;;;;;;41.17;34.03;;;;;;;;;;10357058;28;20527;-52
2022/01/09 20:04:57;;;;;;;44.50;30.55;;;;;;;;;;10355596;28;20068;-58
2022/01/09 20:09:55;;;;;;;65.05;46.42;;;;;;;;;;10348961;28;20134;-58
2022/01/09 20:14:55;;;;;;;35.65;23.85;;;;;;;;;;10359066;28;20059;-58
2022/01/09 20:19:53;;;;;;;38.50;25.95;;;;;;;;;;10356267;28;20068;-57
2022/01/09 20:24:52;;;;;;;55.17;35.50;;;;;;;;;;10353795;28;20516;-59
2022/01/09 20:29:50;;;;;;;50.50;32.33;;;;;;;;;;10350725;28;20123;-55
2022/01/09 20:34:49;;;;;;;60.63;39.80;;;;;;;;;;10352470;28;20064;-56
2022/01/09 20:39:48;;;;;;;48.63;32.60;;;;;;;;;;10352352;28;20071;-58
2022/01/09 20:44:46;;;;;;;51.65;33.05;;;;;;;;;;10351454;28;20712;-58
2022/01/09 20:49:44;;;;;;;42.13;28.20;;;;;;;;;;10349094;28;20529;-58
2022/01/09 20:54:45;;;;;;;45.95;27.70;;;;;;;;;;10346004;28;20102;-59
2022/01/09 20:59:43;;;;;;;43.80;29.10;;;;;;;;;;10347349;28;20138;-58
2022/01/09 21:04:46;;;;;;;42.85;26.35;;;;;;;;;;10349958;28;20498;-57
2022/01/09 21:09:45;;;;;;;61.35;41.05;;;;;;;;;;10349279;28;20567;-58
2022/01/09 21:14:48;;;;;;;120.35;87.35;;;;;;;;;;10347023;28;20070;-59
2022/01/09 21:19:46;;;;;;;48.60;30.30;;;;;;;;;;10347566;28;21273;-57
2022/01/09 21:24:46;;;;;;;44.13;30.80;;;;;;;;;;10347829;28;20059;-58
2022/01/09 21:29:45;;;;;;;43.58;25.85;;;;;;;;;;10352651;28;20067;-58
2022/01/09 21:34:44;;;;;;;46.88;30.95;;;;;;;;;;10350505;28;20548;-58
2022/01/09 21:39:58;;;;;;;41.75;27.25;;;;;;;;;;10348740;28;20068;-57
2022/01/09 21:44:57;;;;;;;45.95;27.45;;;;;;;;;;10349352;28;20067;-56
2022/01/09 21:49:55;;;;;;;43.95;26.67;;;;;;;;;;10350486;28;20560;-57
2022/01/09 21:54:53;;;;;;;54.00;28.33;;;;;;;;;;10348139;28;20079;-58
2022/01/09 21:59:53;;;;;;;57.65;33.03;;;;;;;;;;10352159;28;20064;-58
2022/01/09 22:04:52;;;;;;;52.53;30.38;;;;;;;;;;10351883;28;20075;-57
2022/01/09 22:09:50;;;;;;;54.55;28.20;;;;;;;;;;10348064;28;20068;-58
2022/01/09 22:14:48;;;;;;;55.25;26.38;;;;;;;;;;10346071;28;20090;-56
2022/01/09 22:19:48;;;;;;;58.90;33.97;;;;;;;;;;10339104;28;20474;-57
2022/01/09 22:24:48;;;;;;;73.57;25.25;;;;;;;;;;10349303;28;20657;-57
2022/01/09 22:29:47;;;;;;;77.85;32.40;;;;;;;;;;10350176;28;20076;-57
2022/01/09 22:34:45;;;;;;;49.25;26.95;;;;;;;;;;10348114;28;20063;-57
2022/01/09 22:39:46;;;;;;;46.08;26.55;;;;;;;;;;10348790;28;20548;-56
2022/01/09 22:44:44;;;;;;;42.95;23.60;;;;;;;;;;10350885;28;20067;-57
2022/01/09 22:49:44;;;;;;;62.97;36.78;;;;;;;;;;10351493;28;20079;-57
2022/01/09 22:54:43;;;;;;;53.20;30.90;;;;;;;;;;10350620;28;20068;-54
2022/01/09 22:59:43;;;;;;;43.58;24.73;;;;;;;;;;10351049;28;20472;-58
2022/01/09 23:04:41;;;;;;;37.85;24.15;;;;;;;;;;10331112;28;20086;-57
2022/01/09 23:09:40;;;;;;;39.20;22.52;;;;;;;;;;10348791;28;20469;-58
2022/01/09 23:14:38;;;;;;;37.40;26.40;;;;;;;;;;10351893;28;20060;-58
2022/01/09 23:19:39;;;;;;;33.63;24.52;;;;;;;;;;10350924;28;20070;-59
2022/01/09 23:24:37;;;;;;;37.55;23.63;;;;;;;;;;10346516;28;20491;-57
2022/01/09 23:29:35;;;;;;;37.75;24.33;;;;;;;;;;10347664;28;20083;-55
2022/01/09 23:34:34;;;;;;;32.25;20.65;;;;;;;;;;10345024;28;20074;-55
2022/01/09 23:39:33;;;;;;;26.40;18.38;;;;;;;;;;10345174;28;20060;-56
2022/01/09 23:44:32;;;;;;;21.67;16.10;;;;;;;;;;10351065;28;20071;-57
2022/01/09 23:54:46;;;;;;;;;;;;;;;;;;10351038;28;20056;-56
2022/01/09 23:59:45;;;;;;;25.77;17.85;;;;;;;;;;10350957;28;19955;-56
